Time,TemperatureF,DewpointF,PressureIn,WindDirection,WindDirectionDegrees,WindSpeedMPH,WindSpeedGustMPH,Humidity,HourlyPrecipIn,Conditions,Clouds,dailyrainin,SoftwareType,DateUTC
2013-03-04 00:22:00,30.4,30.4,29.97,NW,326,0.0,7.0,100,0.00,,,0.00,WeatherDisplay:10.37,2013-03-04 05:22:00,
2013-03-04 00:59:00,29.0,29.0,29.98,NW,317,0.0,3.0,100,0.00,,,0.00,WeatherDisplay:10.37,2013-03-04 05:59:00,
2013-03-04 01:59:00,29.2,29.2,29.99,North,359,2.0,8.0,100,0.00,,,0.00,WeatherDisplay:10.37,2013-03-04 06:59:00,
2013-03-04 02:59:00,29.1,29.1,29.99,NNW,342,2.0,8.0,100,0.00,,,0.00,WeatherDisplay:10.37,2013-03-04 07:59:00,
2013-03-04 03:59:00,28.6,28.6,30.01,WNW,295,0.0,10.0,100,0.00,,,0.00,WeatherDisplay:10.37,2013-03-04 08:59:00,
2013-03-04 04:59:00,27.6,27.6,30.03,NW,317,0.0,10.0,100,0.00,,,0.00,WeatherDisplay:10.37,2013-03-04 09:59:00,
2013-03-04 05:59:00,25.7,25.7,30.05,NW,310,0.0,3.0,100,0.00,,,0.00,WeatherDisplay:10.37,2013-03-04 10:59:00,
2013-03-04 06:59:00,24.1,24.1,30.09,NW,308,0.0,2.0,100,0.00,,,0.00,WeatherDisplay:10.37,2013-03-04 11:59:00,
2013-03-04 07:59:00,26.0,26.0,30.11,NW,325,0.0,4.0,100,0.00,,,0.00,WeatherDisplay:10.37,2013-03-04 12:59:00,
2013-03-04 08:59:00,31.5,31.5,30.11,WNW,303,0.0,9.0,100,0.00,,,0.00,WeatherDisplay:10.37,2013-03-04 13:59:00,
2013-03-04 09:59:00,38.6,38.6,30.11,NNW,327,5.0,15.0,100,0.00,,,0.00,WeatherDisplay:10.37,2013-03-04 14:59:00,
2013-03-04 10:59:00,41.9,41.9,30.10,NW,324,2.0,12.0,100,0.00,,,0.00,WeatherDisplay:10.37,2013-03-04 15:59:00,
2013-03-04 11:59:00,44.9,44.9,30.08,NNW,347,1.0,12.0,100,0.00,,,0.00,WeatherDisplay:10.37,2013-03-04 16:59:00,
2013-03-04 12:59:00,47.8,47.8,30.05,North,356,0.0,10.0,100,0.00,CLR,,0.00,WeatherDisplay:10.37,2013-03-04 17:59:00,
2013-03-04 13:59:00,50.1,50.1,30.03,NNW,330,1.0,16.0,100,0.00,CLR,,0.00,WeatherDisplay:10.37,2013-03-04 18:59:00,
2013-03-04 14:59:00,51.2,51.2,30.01,WNW,294,2.0,14.0,100,0.00,CLR,,0.00,WeatherDisplay:10.37,2013-03-04 19:59:00,
2013-03-04 15:59:00,50.4,50.4,30.00,WNW,296,2.0,12.0,100,0.00,CLR,,0.00,WeatherDisplay:10.37,2013-03-04 20:59:00,
2013-03-04 17:00:00,48.7,48.7,30.00,WNW,300,2.0,17.0,100,0.00,CLR,,0.00,WeatherDisplay:10.37,2013-03-04 22:00:00,
2013-03-04 18:02:00,46.3,46.3,30.02,West,277,0.0,9.0,100,0.00,,,0.00,WeatherDisplay:10.37,2013-03-04 23:02:00,
2013-03-04 19:00:00,39.7,39.7,30.04,West,265,0.0,2.0,100,0.00,,,0.00,WeatherDisplay:10.37,2013-03-05 00:00:00,
2013-03-04 20:00:00,35.2,35.2,30.05,West,265,0.0,0.0,100,0.00,,,0.00,WeatherDisplay:10.37,2013-03-05 01:00:00,
2013-03-04 20:59:00,33.1,33.1,30.05,WSW,255,0.0,3.0,100,0.00,,,0.00,WeatherDisplay:10.37,2013-03-05 01:59:00,
2013-03-04 21:59:00,31.3,31.3,30.06,WSW,255,0.0,1.0,100,0.00,,,0.00,WeatherDisplay:10.37,2013-03-05 02:59:00,
2013-03-04 23:00:00,32.1,32.1,30.06,SW,234,0.0,5.0,100,0.00,,,0.00,WeatherDisplay:10.37,2013-03-05 04:00:00,